createdAt,value
2019-05-28T00:02:54.718Z,52.78
2019-05-28T00:07:58.387Z,52.45
2019-05-28T00:13:01.939Z,52.60
2019-05-28T00:18:05.746Z,52.50
2019-05-28T00:23:09.584Z,53.17
2019-05-28T00:28:13.286Z,53.50
2019-05-28T00:33:16.897Z,53.33
2019-05-28T00:38:20.539Z,53.48
2019-05-28T00:43:24.418Z,54.05
2019-05-28T00:48:28.074Z,54.20
2019-05-28T00:53:31.824Z,53.75
2019-05-28T00:58:37.314Z,55.28
2019-05-28T01:03:40.983Z,54.15
2019-05-28T01:08:44.699Z,53.55
2019-05-28T01:13:48.361Z,53.48
2019-05-28T01:18:52.219Z,53.28
2019-05-28T01:23:55.903Z,54.35
2019-05-28T01:28:59.669Z,53.80
2019-05-28T01:34:03.356Z,54.25
2019-05-28T01:39:07.334Z,54.67
2019-05-28T01:44:11.341Z,54.08
2019-05-28T01:49:15.226Z,54.50
2019-05-28T01:54:18.849Z,54.23
2019-05-28T01:59:22.411Z,54.88
2019-05-28T02:04:26.082Z,56.35
2019-05-28T02:09:29.789Z,55.40
2019-05-28T02:14:33.353Z,55.52
2019-05-28T02:19:37.325Z,55.70
2019-05-28T02:24:40.858Z,55.28
2019-05-28T02:29:44.455Z,55.88
2019-05-28T02:34:48.027Z,55.28
2019-05-28T02:39:51.781Z,55.55
2019-05-28T02:44:55.541Z,56.63
2019-05-28T02:49:59.098Z,56.15
2019-05-28T02:55:04.053Z,55.88
2019-05-28T03:00:11.322Z,55.18
2019-05-28T03:05:15.398Z,55.55
2019-05-28T03:11:00.325Z,55.90
2019-05-28T03:15:43.897Z,55.33
2019-05-28T03:20:48.808Z,54.70
2019-05-28T03:25:52.798Z,55.78
2019-05-28T03:30:56.511Z,56.18
2019-05-28T03:36:02.161Z,56.02
2019-05-28T03:41:05.769Z,54.90
2019-05-28T03:46:09.364Z,55.05
2019-05-28T03:51:12.997Z,54.77
2019-05-28T03:56:16.690Z,55.78
2019-05-28T04:01:20.315Z,54.93
2019-05-28T04:06:24.065Z,54.55
2019-05-28T04:11:41.969Z,53.78
2019-05-28T04:16:34.584Z,54.60
2019-05-28T04:21:38.171Z,54.50
2019-05-28T04:26:41.865Z,55.12
2019-05-28T04:31:45.438Z,53.80
2019-05-28T04:36:49.129Z,54.10
2019-05-28T04:41:52.687Z,54.05
2019-05-28T04:46:56.298Z,54.35
2019-05-28T04:51:59.879Z,54.65
2019-05-28T04:57:04.010Z,54.65
2019-05-28T05:02:07.679Z,53.80
2019-05-28T05:07:11.390Z,53.68
2019-05-28T05:12:14.990Z,54.23
2019-05-28T05:17:18.707Z,54.27
2019-05-28T05:22:22.258Z,53.95
2019-05-28T05:27:25.902Z,53.68
2019-05-28T05:32:29.642Z,54.30
2019-05-28T05:37:33.460Z,54.15
2019-05-28T05:42:37.101Z,53.13
2019-05-28T05:47:40.883Z,53.45
2019-05-28T05:52:44.459Z,53.65
2019-05-28T05:57:48.068Z,53.28
2019-05-28T06:02:51.714Z,52.27
2019-05-28T06:07:55.480Z,52.70
2019-05-28T06:12:59.070Z,52.62
2019-05-28T06:18:03.269Z,52.45
2019-05-28T06:23:07.194Z,52.53
2019-05-28T06:28:10.777Z,51.30
2019-05-28T06:33:14.427Z,50.50
2019-05-28T06:38:18.031Z,50.98
2019-05-28T06:43:21.802Z,50.73
2019-05-28T06:48:25.398Z,50.50
2019-05-28T06:53:29.254Z,50.60
2019-05-28T06:58:39.594Z,51.23
2019-05-28T07:03:38.218Z,50.67
2019-05-28T07:08:41.947Z,50.17
2019-05-28T07:13:45.523Z,51.42
2019-05-28T07:18:49.532Z,50.83
2019-05-28T07:23:53.359Z,51.13
2019-05-28T07:28:57.000Z,50.83
2019-05-28T07:34:01.474Z,50.98
2019-05-28T07:39:06.741Z,50.55
2019-05-28T07:44:10.334Z,50.40
2019-05-28T07:49:13.949Z,49.93
2019-05-28T07:54:17.530Z,50.80
2019-05-28T07:59:21.131Z,50.58
2019-05-28T08:04:24.832Z,50.60
2019-05-28T08:09:28.563Z,51.05
2019-05-28T08:14:32.153Z,51.05
2019-05-28T08:19:35.867Z,54.70
2019-05-28T08:24:39.477Z,55.25
2019-05-28T08:29:45.768Z,55.98
2019-05-28T08:35:04.361Z,50.20
2019-05-28T08:39:53.790Z,50.92
2019-05-28T08:44:57.483Z,50.30
2019-05-28T08:50:01.238Z,50.75
2019-05-28T08:55:06.633Z,50.52
2019-05-28T09:00:11.589Z,50.58
2019-05-28T09:05:26.502Z,50.17
2019-05-28T09:15:25.132Z,50.00
2019-05-28T09:20:29.701Z,50.15
2019-05-28T09:25:33.331Z,50.00
2019-05-28T09:30:37.183Z,50.28
2019-05-28T09:35:50.300Z,50.90
2019-05-28T09:40:50.578Z,54.03
2019-05-28T09:45:52.782Z,62.73
2019-05-28T09:50:56.659Z,54.93
2019-05-28T09:56:00.370Z,54.40
2019-05-28T10:01:04.349Z,54.42
2019-05-28T10:06:16.753Z,62.88
2019-05-28T10:11:13.489Z,59.85
2019-05-28T10:16:17.111Z,55.83
2019-05-28T10:21:20.933Z,54.77
2019-05-28T10:26:24.506Z,54.98
2019-05-28T10:31:28.106Z,53.52
2019-05-28T10:36:36.925Z,52.75
2019-05-28T10:41:37.426Z,52.83
2019-05-28T10:46:41.011Z,53.55
2019-05-28T10:51:44.715Z,52.93
2019-05-28T10:56:48.315Z,51.75
2019-05-28T11:01:52.052Z,51.73
2019-05-28T11:06:55.806Z,51.95
2019-05-28T11:11:59.527Z,51.92
2019-05-28T11:17:03.163Z,51.75
2019-05-28T11:22:06.885Z,52.70
2019-05-28T11:27:10.491Z,53.02
2019-05-28T11:32:14.182Z,53.65
2019-05-28T11:37:18.201Z,53.15
2019-05-28T11:42:21.848Z,52.55
2019-05-28T11:47:25.442Z,53.73
2019-05-28T11:52:29.049Z,53.65
2019-05-28T11:57:32.732Z,53.45
2019-05-28T12:02:36.425Z,54.05
2019-05-28T12:07:40.101Z,54.55
2019-05-28T12:12:43.780Z,54.55
2019-05-28T12:17:47.790Z,54.60
2019-05-28T12:23:08.952Z,53.35
2019-05-28T12:27:56.822Z,54.38
2019-05-28T12:33:00.511Z,54.55
2019-05-28T12:38:04.779Z,54.20
2019-05-28T12:43:08.483Z,54.20
2019-05-28T12:48:13.363Z,53.60
2019-05-28T12:53:17.113Z,52.70
2019-05-28T12:58:20.904Z,53.40
2019-05-28T13:03:24.498Z,53.97
2019-05-28T13:08:28.486Z,52.60
2019-05-28T13:13:32.151Z,52.20
2019-05-28T13:18:35.904Z,54.03
2019-05-28T13:23:39.666Z,52.92
2019-05-28T13:28:43.524Z,54.97
2019-05-28T13:33:47.151Z,54.80
2019-05-28T13:38:50.877Z,53.43
2019-05-28T13:43:54.538Z,54.07
2019-05-28T13:48:58.223Z,53.27
2019-05-28T13:54:01.892Z,54.17
2019-05-28T13:59:06.116Z,54.40
2019-05-28T14:04:09.838Z,54.83
2019-05-28T14:09:13.523Z,53.97
2019-05-28T14:14:17.178Z,54.90
2019-05-28T14:19:20.840Z,54.90
2019-05-28T14:24:24.478Z,55.60
2019-05-28T14:29:28.312Z,53.70
2019-05-28T14:34:31.873Z,54.93
2019-05-28T14:39:41.039Z,56.10
2019-05-28T14:44:43.237Z,55.63
2019-05-28T14:49:45.946Z,56.17
2019-05-28T14:54:49.591Z,54.30
2019-05-28T14:59:53.440Z,54.60
2019-05-28T15:04:57.031Z,53.87
2019-05-28T15:10:00.869Z,54.73
2019-05-28T15:15:06.717Z,53.44
2019-05-28T15:20:11.883Z,55.38
2019-05-28T15:25:17.085Z,55.57
2019-05-28T15:30:21.451Z,54.60
2019-05-28T15:35:25.270Z,56.53
2019-05-28T15:40:30.834Z,55.64
2019-05-28T15:45:34.390Z,53.83
2019-05-28T15:50:38.053Z,53.40
2019-05-28T15:55:41.718Z,54.90
2019-05-28T16:00:46.147Z,54.27
2019-05-28T16:05:50.934Z,53.15
2019-05-28T16:10:54.801Z,53.87
2019-05-28T16:15:58.450Z,53.13
2019-05-28T16:21:02.319Z,52.30
2019-05-28T16:26:06.169Z,51.47
2019-05-28T16:31:12.821Z,52.87
2019-05-28T16:36:15.073Z,54.40
2019-05-28T16:41:18.660Z,53.53
2019-05-28T16:46:22.344Z,52.70
2019-05-28T16:51:25.979Z,51.67
2019-05-28T16:56:29.900Z,51.23
2019-05-28T17:01:33.512Z,52.83
2019-05-28T17:06:38.423Z,51.87
2019-05-28T17:11:42.584Z,51.97
2019-05-28T17:16:46.635Z,51.50
2019-05-28T17:21:50.352Z,51.83
2019-05-28T17:26:54.191Z,52.63
2019-05-28T17:31:57.824Z,53.00
2019-05-28T17:37:01.582Z,53.20
2019-05-28T17:42:05.410Z,52.97
2019-05-28T17:47:09.433Z,53.40
2019-05-28T17:52:13.130Z,52.87
2019-05-28T17:57:16.810Z,52.83
2019-05-28T18:02:20.379Z,53.43
2019-05-28T18:07:24.114Z,53.30
2019-05-28T18:12:27.714Z,56.60
2019-05-28T18:17:31.328Z,55.20
2019-05-28T18:22:34.954Z,56.40
2019-05-28T18:27:38.899Z,57.80
2019-05-28T18:32:42.446Z,55.70
2019-05-28T18:37:46.112Z,55.20
2019-05-28T18:42:49.824Z,55.87
2019-05-28T18:47:53.523Z,55.50
2019-05-28T18:52:57.191Z,54.73
2019-05-28T18:58:01.319Z,55.07
2019-05-28T19:03:05.326Z,56.70
2019-05-28T19:08:09.071Z,56.53
2019-05-28T19:13:12.667Z,63.57
2019-05-28T19:18:16.418Z,61.43
2019-05-28T19:23:20.092Z,58.07
2019-05-28T19:28:23.935Z,56.40
2019-05-28T19:33:27.992Z,58.33
2019-05-28T19:38:44.852Z,57.43
2019-05-28T19:48:41.506Z,55.63
2019-05-28T19:53:45.113Z,61.23
2019-05-28T19:58:48.708Z,61.33
2019-05-28T20:03:52.389Z,60.57
2019-05-28T20:08:57.666Z,56.97
2019-05-28T20:14:05.451Z,56.93
2019-05-28T20:19:06.838Z,55.73
2019-05-28T20:24:10.395Z,58.57
2019-05-28T20:29:14.058Z,57.20
2019-05-28T20:34:17.661Z,57.57
2019-05-28T20:39:21.366Z,58.17
2019-05-28T20:44:25.104Z,58.13
2019-05-28T20:49:28.738Z,57.33
2019-05-28T20:54:32.399Z,56.43
2019-05-28T20:59:36.044Z,57.13
2019-05-28T21:04:41.585Z,56.50
2019-05-28T21:09:45.211Z,57.43
2019-05-28T21:14:48.799Z,59.33
2019-05-28T21:19:53.284Z,55.67
2019-05-28T21:24:58.777Z,57.33
2019-05-28T21:30:02.206Z,55.57
2019-05-28T21:35:06.566Z,56.13
2019-05-28T21:40:11.578Z,58.15
2019-05-28T21:45:16.957Z,56.83
2019-05-28T21:50:21.498Z,56.75
2019-05-28T21:55:25.147Z,59.37
2019-05-28T22:00:42.259Z,61.23
2019-05-28T22:05:45.953Z,60.55
2019-05-28T22:10:49.595Z,58.55
2019-05-28T22:15:53.313Z,57.70
2019-05-28T22:20:58.155Z,57.33
2019-05-28T22:26:02.632Z,56.87
2019-05-28T22:31:06.551Z,55.80
2019-05-28T22:36:10.346Z,56.63
2019-05-28T22:41:13.854Z,56.47
2019-05-28T22:46:17.543Z,56.73
2019-05-28T22:51:21.090Z,56.97
2019-05-28T22:56:24.666Z,57.47
2019-05-28T23:01:28.325Z,57.77
2019-05-28T23:06:31.895Z,57.03
2019-05-28T23:11:35.748Z,58.80
2019-05-28T23:16:39.384Z,58.30
2019-05-28T23:21:43.025Z,57.57
2019-05-28T23:26:46.597Z,55.10
2019-05-28T23:31:50.250Z,55.30
2019-05-28T23:36:53.835Z,56.10
2019-05-28T23:41:57.565Z,55.97
2019-05-28T23:47:01.239Z,55.20
2019-05-28T23:52:05.045Z,55.33
2019-05-28T23:57:09.797Z,55.67
